Time;durP1;ratioP1;P1;durP2;ratioP2;P2;SDS_P1;SDS_P2;PMS_P1;PMS_P2;Temp;Humidity;BMP_temperature;BMP_pressure;BME280_temperature;BME280_humidity;BME280_pressure;Samples;Min_cycle;Max_cycle;Signal;HPM_P1;HPM_P2
2023/08/14 00:00:03;;;;;;;0.45;0.45;;;20.30;99.90;;;;;;5092465;28;20012;-81
2023/08/14 00:02:42;;;;;;;0.60;0.60;;;20.20;99.90;;;;;;5088317;28;20032;-80
2023/08/14 00:05:32;;;;;;;0.60;0.55;;;20.20;99.90;;;;;;5064355;28;20466;-79
2023/08/14 00:08:35;;;;;;;0.60;0.60;;;20.20;99.90;;;;;;5042105;28;20032;-81
2023/08/14 00:11:17;;;;;;;1.88;1.25;;;20.10;99.90;;;;;;5078087;28;20351;-80
2023/08/14 00:13:59;;;;;;;0.60;0.60;;;20.10;99.90;;;;;;5079200;28;20103;-80
2023/08/14 00:16:39;;;;;;;0.60;0.60;;;20.10;99.90;;;;;;5091211;28;20092;-81
2023/08/14 00:19:19;;;;;;;0.50;0.50;;;20.00;99.90;;;;;;5061012;28;20020;-80
2023/08/14 00:21:51;;;;;;;0.57;0.57;;;20.00;99.90;;;;;;5070179;28;20016;-79
2023/08/14 00:25:04;;;;;;;0.32;0.30;;;20.00;99.90;;;;;;5085346;28;20093;-80
2023/08/14 00:30:43;;;;;;;0.38;0.38;;;19.90;99.90;;;;;;5089316;28;20028;-81
2023/08/14 00:33:22;;;;;;;0.60;0.60;;;19.90;99.90;;;;;;5064641;28;20607;-81
2023/08/14 00:35:58;;;;;;;0.50;0.50;;;19.80;99.90;;;;;;5073222;28;20363;-81
2023/08/14 00:38:25;;;;;;;0.57;0.57;;;19.80;99.90;;;;;;5044554;28;20475;-81
2023/08/14 00:41:03;;;;;;;0.47;0.47;;;19.70;99.90;;;;;;5062276;28;20023;-81
2023/08/14 00:43:37;;;;;;;0.50;0.50;;;19.70;99.90;;;;;;5084475;28;20529;-81
2023/08/14 00:46:03;;;;;;;0.40;0.40;;;19.70;99.90;;;;;;5065593;28;20426;-82
2023/08/14 00:48:30;;;;;;;0.40;0.40;;;19.70;99.90;;;;;;5071800;28;20087;-80
2023/08/14 00:50:56;;;;;;;0.40;0.40;;;19.60;99.90;;;;;;5092110;28;20035;-79
2023/08/14 00:53:26;;;;;;;0.32;0.32;;;19.60;99.90;;;;;;5088733;28;20024;-81
2023/08/14 00:55:52;;;;;;;0.30;0.30;;;19.50;99.90;;;;;;5072029;28;20094;-81
2023/08/14 00:58:18;;;;;;;0.47;0.47;;;19.50;99.90;;;;;;5078039;28;20575;-80
2023/08/14 01:00:44;;;;;;;0.32;0.32;;;19.40;99.90;;;;;;5084935;28;20032;-79
2023/08/14 01:03:10;;;;;;;0.43;0.43;;;19.40;99.90;;;;;;5080936;28;20024;-79
2023/08/14 01:05:36;;;;;;;0.40;0.40;;;19.40;99.90;;;;;;5113371;28;20074;-80
2023/08/14 01:08:02;;;;;;;0.52;0.50;;;19.30;99.90;;;;;;5072844;28;20617;-79
2023/08/14 01:10:42;;;;;;;0.25;0.25;;;19.30;99.90;;;;;;5072236;28;20081;-79
2023/08/14 01:13:14;;;;;;;0.32;0.32;;;19.30;99.90;;;;;;5078913;28;20025;-79
2023/08/14 01:15:46;;;;;;;0.30;0.30;;;19.30;99.90;;;;;;5085538;28;20088;-79
2023/08/14 01:18:17;;;;;;;0.60;0.60;;;19.30;99.90;;;;;;5072699;28;20477;-79
2023/08/14 01:20:54;;;;;;;0.30;0.30;;;19.30;99.90;;;;;;5093768;28;20035;-78
2023/08/14 01:23:28;;;;;;;0.40;0.40;;;19.30;99.90;;;;;;5079765;28;20048;-78
2023/08/14 01:25:54;;;;;;;0.25;0.25;;;19.30;99.90;;;;;;5096459;28;20020;-79
2023/08/14 01:28:20;;;;;;;0.38;0.38;;;19.30;99.90;;;;;;5094508;28;20063;-78
2023/08/14 01:30:46;;;;;;;0.30;0.30;;;19.30;99.90;;;;;;5056112;28;20021;-79
2023/08/14 01:33:11;;;;;;;0.38;0.38;;;19.20;99.90;;;;;;5076382;28;20016;-80
2023/08/14 01:35:42;;;;;;;0.30;0.30;;;19.20;99.90;;;;;;5104240;28;20031;-79
2023/08/14 01:38:31;;;;;;;0.30;0.30;;;19.20;99.90;;;;;;5110343;28;20028;-80
2023/08/14 01:41:13;;;;;;;0.38;0.38;;;19.10;99.90;;;;;;5069247;28;20025;-80
2023/08/14 01:43:47;;;;;;;0.30;0.30;;;19.10;99.90;;;;;;5067293;28;20048;-81
2023/08/14 01:46:14;;;;;;;0.40;0.40;;;19.10;99.90;;;;;;5058794;28;20029;-81
2023/08/14 01:48:41;;;;;;;0.25;0.25;;;19.10;99.90;;;;;;5064524;28;20048;-79
2023/08/14 01:51:08;;;;;;;0.40;0.40;;;19.10;99.90;;;;;;5052631;28;20171;-81
2023/08/14 01:53:35;;;;;;;0.30;0.30;;;19.10;99.90;;;;;;5103628;28;20020;-80
2023/08/14 01:56:01;;;;;;;0.20;0.20;;;19.10;99.90;;;;;;5067577;28;20029;-80
2023/08/14 01:58:27;;;;;;;0.32;0.32;;;19.10;99.90;;;;;;5059732;28;20670;-81
2023/08/14 02:00:53;;;;;;;0.22;0.20;;;19.10;99.90;;;;;;5091443;28;20059;-79
2023/08/14 02:03:18;;;;;;;0.30;0.30;;;19.10;99.90;;;;;;5065539;28;20071;-80
2023/08/14 02:05:44;;;;;;;0.43;0.30;;;19.10;99.90;;;;;;5085355;28;20057;-81
2023/08/14 02:08:10;;;;;;;0.47;0.47;;;19.00;99.90;;;;;;5070128;28;20028;-79
2023/08/14 02:10:36;;;;;;;0.30;0.30;;;19.00;99.90;;;;;;5074108;28;20054;-80
2023/08/14 02:13:01;;;;;;;0.45;0.45;;;19.00;99.90;;;;;;5088968;28;20024;-80
2023/08/14 02:15:27;;;;;;;0.30;0.30;;;18.90;99.90;;;;;;5085623;28;20021;-80
2023/08/14 02:17:53;;;;;;;0.30;0.30;;;18.90;99.90;;;;;;5082354;28;20065;-79
2023/08/14 02:20:19;;;;;;;0.40;0.40;;;18.90;99.90;;;;;;5081447;28;20024;-79
2023/08/14 02:22:46;;;;;;;0.38;0.38;;;18.90;99.90;;;;;;5054810;28;20089;-78
2023/08/14 02:25:11;;;;;;;0.30;0.30;;;18.90;99.90;;;;;;5058097;28;20017;-79
2023/08/14 02:27:37;;;;;;;0.30;0.30;;;19.00;99.90;;;;;;5073381;28;20048;-80
2023/08/14 02:30:03;;;;;;;0.30;0.30;;;19.00;99.90;;;;;;5058956;28;20021;-78
2023/08/14 02:32:29;;;;;;;0.20;0.20;;;19.10;99.90;;;;;;5059206;28;20021;-78
2023/08/14 02:35:10;;;;;;;0.35;0.35;;;19.10;99.90;;;;;;5059446;28;20052;-78
2023/08/14 02:37:40;;;;;;;0.55;0.30;;;19.10;99.90;;;;;;5061717;28;20025;-78
2023/08/14 02:40:07;;;;;;;0.30;0.30;;;19.10;99.90;;;;;;5077682;28;20084;-79
2023/08/14 02:42:32;;;;;;;0.20;0.20;;;19.10;99.90;;;;;;5059177;28;20021;-80
2023/08/14 02:44:58;;;;;;;0.40;0.40;;;19.10;99.90;;;;;;5075173;28;20146;-81
2023/08/14 02:47:24;;;;;;;0.47;0.47;;;19.10;99.90;;;;;;5081315;28;20048;-79
2023/08/14 02:49:49;;;;;;;0.45;0.32;;;19.10;99.90;;;;;;5057721;28;20091;-79
2023/08/14 02:52:15;;;;;;;0.47;0.47;;;19.10;99.90;;;;;;5056130;28;20032;-79
2023/08/14 02:54:41;;;;;;;0.63;0.63;;;19.10;99.90;;;;;;5091065;28;20035;-79
2023/08/14 02:57:06;;;;;;;0.60;0.60;;;19.00;99.90;;;;;;5099898;28;20054;-78
2023/08/14 02:59:33;;;;;;;0.80;0.68;;;19.00;99.90;;;;;;5098611;28;20075;-78
2023/08/14 03:01:59;;;;;;;1.17;0.70;;;18.90;99.90;;;;;;5110690;28;20016;-78
2023/08/14 03:04:25;;;;;;;0.80;0.80;;;18.90;99.90;;;;;;5073792;28;20028;-81
2023/08/14 03:06:50;;;;;;;0.60;0.60;;;18.90;99.90;;;;;;5083306;28;20111;-80
2023/08/14 03:09:16;;;;;;;0.60;0.60;;;18.90;99.90;;;;;;5074068;28;20050;-80
2023/08/14 03:11:42;;;;;;;0.63;0.63;;;18.90;99.90;;;;;;5105450;28;20049;-80
2023/08/14 03:14:07;;;;;;;0.52;0.52;;;18.90;99.90;;;;;;5065418;28;20060;-80
2023/08/14 03:16:33;;;;;;;0.70;0.70;;;19.00;99.90;;;;;;5090719;28;20022;-79
2023/08/14 03:18:59;;;;;;;0.80;0.80;;;19.00;99.90;;;;;;5050721;28;20017;-78
2023/08/14 03:21:25;;;;;;;0.70;0.70;;;19.00;99.90;;;;;;5095706;28;20028;-79
2023/08/14 03:23:50;;;;;;;0.98;0.90;;;19.00;99.90;;;;;;5087172;28;20093;-78
2023/08/14 03:26:16;;;;;;;1.00;1.00;;;19.00;99.90;;;;;;5090246;28;20024;-79
2023/08/14 03:28:42;;;;;;;0.82;0.82;;;19.00;99.90;;;;;;5081374;28;20033;-81
2023/08/14 03:31:07;;;;;;;0.68;0.68;;;19.00;99.90;;;;;;5088400;28;20024;-81
2023/08/14 03:33:33;;;;;;;0.70;0.70;;;19.00;99.90;;;;;;5065238;28;20066;-81
2023/08/14 03:35:59;;;;;;;0.80;0.63;;;19.00;99.90;;;;;;5075999;28;20095;-80
2023/08/14 03:38:25;;;;;;;0.52;0.52;;;19.00;99.90;;;;;;5049878;28;20029;-79
2023/08/14 03:40:50;;;;;;;0.60;0.60;;;19.00;99.90;;;;;;5057419;28;20016;-78
2023/08/14 03:43:16;;;;;;;0.70;0.70;;;19.00;99.90;;;;;;5075879;28;20024;-81
2023/08/14 03:45:42;;;;;;;0.50;0.50;;;19.00;99.90;;;;;;5075701;28;20050;-81
2023/08/14 03:48:07;;;;;;;0.60;0.60;;;19.00;99.90;;;;;;5074413;28;20033;-84
2023/08/14 03:50:33;;;;;;;0.50;0.50;;;19.00;99.90;;;;;;5085578;28;20492;-79
2023/08/14 03:52:59;;;;;;;0.50;0.50;;;19.00;99.90;;;;;;5039679;28;20033;-77
2023/08/14 03:55:24;;;;;;;0.50;0.50;;;19.00;99.90;;;;;;5051836;28;20025;-77
2023/08/14 03:57:50;;;;;;;0.55;0.55;;;19.00;99.90;;;;;;5060685;28;20024;-76
2023/08/14 04:00:16;;;;;;;0.50;0.50;;;19.00;99.90;;;;;;5070721;28;20032;-77
2023/08/14 04:02:41;;;;;;;0.40;0.40;;;19.00;99.90;;;;;;5075113;28;20020;-78
2023/08/14 04:05:07;;;;;;;0.50;0.50;;;19.00;99.90;;;;;;5093842;28;20467;-77
2023/08/14 04:07:33;;;;;;;0.43;0.43;;;19.00;99.90;;;;;;5096279;28;20024;-78
2023/08/14 04:09:59;;;;;;;0.40;0.40;;;19.00;99.90;;;;;;5063285;28;20101;-78
2023/08/14 04:12:24;;;;;;;0.50;0.50;;;19.10;99.90;;;;;;5042590;28;20061;-78
2023/08/14 04:14:50;;;;;;;0.47;0.47;;;19.10;99.90;;;;;;5035538;28;20025;-77
2023/08/14 04:17:16;;;;;;;0.40;0.40;;;19.20;99.90;;;;;;5035081;28;20131;-77
2023/08/14 04:19:42;;;;;;;0.40;0.40;;;19.20;99.90;;;;;;5041588;28;20389;-78
2023/08/14 04:22:07;;;;;;;0.40;0.40;;;19.30;99.90;;;;;;5073768;28;20100;-78
2023/08/14 04:24:33;;;;;;;0.30;0.30;;;19.30;99.90;;;;;;5073722;28;20044;-80
2023/08/14 04:26:59;;;;;;;0.50;0.50;;;19.30;99.90;;;;;;5056234;28;20428;-79
2023/08/14 04:29:24;;;;;;;0.50;0.50;;;19.30;99.90;;;;;;5084303;28;20415;-80
2023/08/14 04:31:50;;;;;;;0.50;0.50;;;19.40;99.90;;;;;;5076138;28;20112;-79
2023/08/14 04:34:16;;;;;;;0.57;0.57;;;19.40;99.90;;;;;;5072741;28;20740;-80
2023/08/14 04:36:41;;;;;;;0.43;0.43;;;19.40;99.90;;;;;;5064718;28;20037;-79
2023/08/14 04:39:07;;;;;;;0.70;0.70;;;19.50;99.90;;;;;;5076452;28;20012;-79
2023/08/14 04:41:33;;;;;;;0.50;0.50;;;19.50;99.90;;;;;;5061462;28;20025;-78
2023/08/14 04:44:00;;;;;;;0.60;0.60;;;19.50;99.90;;;;;;5055160;28;20098;-79
2023/08/14 04:46:36;;;;;;;0.60;0.60;;;19.60;99.90;;;;;;5037212;28;20091;-80
2023/08/14 04:49:03;;;;;;;0.60;0.60;;;19.60;99.90;;;;;;5037305;28;20029;-80
2023/08/14 04:51:31;;;;;;;0.75;0.70;;;19.70;99.90;;;;;;5037473;28;20105;-80
2023/08/14 04:53:58;;;;;;;0.82;0.82;;;19.80;99.90;;;;;;5055223;28;20028;-80
2023/08/14 04:56:25;;;;;;;0.73;0.73;;;19.90;99.90;;;;;;5054914;28;20482;-79
2023/08/14 04:58:52;;;;;;;0.90;0.75;;;20.00;99.90;;;;;;5057825;28;20050;-80
2023/08/14 05:01:17;;;;;;;0.50;0.50;;;20.10;99.90;;;;;;5087717;28;20028;-81
2023/08/14 05:03:43;;;;;;;0.70;0.70;;;20.30;99.90;;;;;;5057582;28;20021;-80
2023/08/14 05:06:10;;;;;;;0.70;0.70;;;20.40;99.90;;;;;;5075699;28;20469;-79
2023/08/14 05:08:35;;;;;;;0.68;0.68;;;20.40;99.90;;;;;;5078680;28;20024;-81
2023/08/14 05:11:01;;;;;;;0.60;0.60;;;20.60;99.90;;;;;;5061999;28;20025;-81
2023/08/14 05:13:27;;;;;;;0.52;0.52;;;20.70;99.90;;;;;;5083363;28;20107;-81
2023/08/14 05:15:52;;;;;;;0.55;0.55;;;20.80;99.90;;;;;;5085788;28;20119;-81
2023/08/14 05:18:19;;;;;;;0.82;0.82;;;20.90;99.90;;;;;;5095885;28;20024;-79
2023/08/14 05:20:46;;;;;;;1.77;1.25;;;20.90;99.90;;;;;;5072536;28;20461;-79
2023/08/14 05:23:12;;;;;;;1.02;0.98;;;20.80;99.90;;;;;;5086914;28;20116;-80
2023/08/14 05:25:38;;;;;;;0.90;0.90;;;20.80;99.90;;;;;;5068766;28;20028;-77
2023/08/14 05:28:05;;;;;;;1.88;1.20;;;20.80;99.90;;;;;;5082576;28;20045;-78
2023/08/14 05:30:31;;;;;;;1.17;0.98;;;20.90;99.90;;;;;;5099479;28;20100;-80
2023/08/14 05:32:57;;;;;;;0.90;0.90;;;21.00;99.90;;;;;;5074709;28;20029;-79
2023/08/14 05:35:23;;;;;;;1.27;1.20;;;21.00;99.90;;;;;;5049893;28;20032;-81
2023/08/14 05:37:55;;;;;;;1.33;1.20;;;21.10;99.90;;;;;;5070975;28;20027;-79
2023/08/14 05:40:27;;;;;;;2.58;1.00;;;21.30;99.90;;;;;;5079153;28;20039;-80
2023/08/14 05:43:06;;;;;;;1.23;1.13;;;21.30;99.90;;;;;;5078991;28;20024;-78
2023/08/14 05:45:36;;;;;;;1.58;1.48;;;21.30;99.80;;;;;;5097486;28;20013;-79
2023/08/14 05:48:04;;;;;;;1.38;1.27;;;21.40;99.90;;;;;;5097703;28;20090;-78
2023/08/14 05:50:30;;;;;;;1.38;1.30;;;21.60;99.90;;;;;;5097720;28;20083;-79
2023/08/14 05:52:59;;;;;;;1.40;1.08;;;21.80;98.80;;;;;;5096260;28;20013;-77
2023/08/14 05:55:26;;;;;;;1.10;1.00;;;22.00;98.50;;;;;;5096244;28;20083;-78
2023/08/14 05:57:52;;;;;;;1.33;1.23;;;22.20;98.10;;;;;;5067348;28;20097;-78
2023/08/14 06:00:19;;;;;;;1.25;1.15;;;22.40;97.20;;;;;;5109825;28;20051;-79
2023/08/14 06:02:45;;;;;;;1.00;1.00;;;22.50;97.00;;;;;;5112892;28;20127;-77
2023/08/14 06:05:11;;;;;;;1.00;1.00;;;22.70;96.90;;;;;;5108367;28;20110;-80
2023/08/14 06:07:37;;;;;;;1.00;1.00;;;22.80;96.20;;;;;;5099595;28;20108;-81
2023/08/14 06:10:04;;;;;;;1.10;0.90;;;23.00;95.90;;;;;;5098535;28;20500;-80
2023/08/14 06:12:31;;;;;;;0.90;0.90;;;23.00;95.20;;;;;;5080270;28;20040;-80
2023/08/14 06:14:56;;;;;;;1.00;1.00;;;23.20;95.00;;;;;;5039258;28;20060;-80
2023/08/14 06:17:22;;;;;;;0.70;0.70;;;23.40;94.70;;;;;;5040626;28;20025;-79
2023/08/14 06:19:48;;;;;;;0.88;0.88;;;23.90;94.10;;;;;;5039001;28;20025;-79
2023/08/14 06:22:15;;;;;;;0.90;0.90;;;;;;;;;;5064604;28;20083;-77
2023/08/14 06:24:42;;;;;;;0.80;0.80;;;;;;;;;;5077233;28;20009;-79
2023/08/14 06:27:08;;;;;;;0.63;0.63;;;;;;;;;;5079989;28;20093;-79
2023/08/14 06:29:34;;;;;;;0.70;0.70;;;;;;;;;;5088793;28;20024;-79
2023/08/14 06:32:00;;;;;;;0.80;0.80;;;;;;;;;;5079075;28;20378;-80
2023/08/14 06:34:27;;;;;;;0.50;0.50;;;;;;;;;;5043005;28;20386;-79
2023/08/14 06:36:53;;;;;;;0.73;0.73;;;;;;;;;;5041745;28;20048;-79
2023/08/14 06:39:20;;;;;;;0.82;0.82;;;;;;;;;;5058006;28;20082;-80
2023/08/14 06:41:46;;;;;;;1.00;1.00;;;;;;;;;;5057530;28;20028;-79
2023/08/14 06:44:12;;;;;;;0.70;0.70;;;;;;;;;;5056928;28;20031;-81
2023/08/14 06:46:38;;;;;;;0.88;0.88;;;;;;;;;;5072397;28;20034;-79
2023/08/14 06:49:04;;;;;;;0.85;0.85;;;;;;;;;;5058587;28;20028;-80
2023/08/14 06:51:32;;;;;;;0.63;0.63;;;;;;;;;;5059982;28;20480;-79
2023/08/14 06:53:58;;;;;;;0.80;0.80;;;;;;;;;;5065169;28;20028;-80
2023/08/14 06:56:25;;;;;;;0.65;0.65;;;;;;;;;;5067122;28;20151;-79
2023/08/14 06:58:51;;;;;;;0.80;0.80;;;;;;;;;;5096025;28;20028;-79
2023/08/14 07:01:17;;;;;;;0.60;0.60;;;29.50;61.30;;;;;;5111327;28;20016;-80
2023/08/14 07:03:42;;;;;;;0.77;0.77;;;29.30;62.00;;;;;;5096021;28;20070;-80
2023/08/14 07:06:08;;;;;;;0.70;0.70;;;28.10;65.10;;;;;;5058410;28;20086;-81
2023/08/14 07:08:34;;;;;;;0.52;0.52;;;27.10;67.90;;;;;;5078426;28;20028;-82
2023/08/14 07:11:00;;;;;;;0.43;0.43;;;26.30;70.20;;;;;;5077523;28;20025;-81
2023/08/14 07:13:25;;;;;;;0.80;0.80;;;25.80;72.00;;;;;;5059120;28;20477;-80
2023/08/14 07:15:51;;;;;;;0.70;0.70;;;25.40;73.60;;;;;;5064818;28;20115;-79
2023/08/14 07:18:18;;;;;;;0.73;0.73;;;25.10;74.90;;;;;;5081235;28;20478;-81
2023/08/14 07:20:45;;;;;;;0.93;0.70;;;24.90;75.80;;;;;;5088076;28;20412;-80
2023/08/14 07:23:12;;;;;;;0.77;0.77;;;24.80;76.80;;;;;;5073526;28;20036;-80
2023/08/14 07:25:38;;;;;;;0.70;0.70;;;24.70;77.40;;;;;;5081263;28;20124;-80
2023/08/14 07:28:04;;;;;;;0.90;0.90;;;24.60;78.00;;;;;;5073755;28;20038;-80
2023/08/14 07:30:31;;;;;;;0.65;0.65;;;24.70;78.70;;;;;;5077107;28;20058;-79
2023/08/14 07:32:57;;;;;;;1.05;0.80;;;24.70;79.10;;;;;;5090799;28;20104;-83
2023/08/14 07:35:22;;;;;;;0.75;0.75;;;24.70;79.60;;;;;;5062194;28;20452;-82
2023/08/14 07:37:50;;;;;;;1.10;1.10;;;24.60;79.70;;;;;;5060536;28;20024;-81
2023/08/14 07:40:17;;;;;;;0.80;0.80;;;24.60;80.80;;;;;;5089193;28;20051;-79
2023/08/14 07:42:43;;;;;;;0.90;0.90;;;24.50;80.80;;;;;;5096339;28;20099;-78
2023/08/14 07:45:09;;;;;;;1.08;0.98;;;24.50;81.60;;;;;;5096118;28;20040;-79
2023/08/14 07:47:35;;;;;;;0.98;0.98;;;24.50;81.70;;;;;;5071425;28;20036;-81
2023/08/14 07:50:01;;;;;;;1.95;1.00;;;24.50;81.50;;;;;;5059324;28;20021;-81
2023/08/14 07:52:27;;;;;;;1.50;1.40;;;24.60;81.40;;;;;;5077829;28;20196;-81
2023/08/14 07:54:56;;;;;;;1.60;1.50;;;24.60;81.00;;;;;;5059741;28;20431;-82
2023/08/14 07:57:23;;;;;;;1.40;1.30;;;24.50;80.40;;;;;;5074594;28;20036;-81
2023/08/14 07:59:49;;;;;;;1.25;1.17;;;24.50;80.90;;;;;;5057700;28;20021;-79
2023/08/14 08:02:15;;;;;;;1.35;1.25;;;24.60;81.40;;;;;;5039860;28;20021;-82
2023/08/14 08:04:41;;;;;;;1.10;1.10;;;24.80;81.60;;;;;;5039257;28;20157;-82
2023/08/14 08:07:07;;;;;;;1.05;1.05;;;25.10;81.50;;;;;;5054432;28;20044;-81
2023/08/14 08:09:33;;;;;;;1.10;1.10;;;25.30;80.90;;;;;;5068032;28;20041;-81
2023/08/14 08:11:58;;;;;;;0.90;0.90;;;25.40;79.40;;;;;;5057509;28;20036;-82
2023/08/14 08:14:25;;;;;;;0.98;0.98;;;25.50;79.40;;;;;;5038555;28;20021;-81
2023/08/14 08:16:51;;;;;;;1.20;1.20;;;25.50;78.20;;;;;;5040284;28;20047;-82
2023/08/14 08:19:17;;;;;;;1.17;1.08;;;25.70;77.70;;;;;;5040141;28;20025;-82
2023/08/14 08:21:43;;;;;;;1.10;1.10;;;26.00;76.90;;;;;;5058250;28;20020;-80
2023/08/14 08:24:09;;;;;;;1.02;1.02;;;26.20;76.40;;;;;;5039369;28;20033;-82
2023/08/14 08:26:36;;;;;;;1.10;1.10;;;26.50;75.60;;;;;;5039840;28;20036;-80
2023/08/14 08:29:02;;;;;;;1.00;1.00;;;26.80;73.90;;;;;;5067760;28;20032;-81
2023/08/14 08:31:28;;;;;;;1.20;1.20;;;26.90;72.50;;;;;;5079420;28;20034;-82
2023/08/14 08:33:54;;;;;;;1.42;1.33;;;26.90;72.00;;;;;;5097780;28;20028;-79
2023/08/14 08:36:19;;;;;;;1.30;1.30;;;26.80;71.80;;;;;;5078919;28;20058;-80
2023/08/14 08:38:46;;;;;;;3.67;1.65;;;26.80;71.70;;;;;;5079370;28;20087;-81
2023/08/14 08:41:25;;;;;;;1.25;1.25;;;27.00;71.80;;;;;;5080899;28;20119;-82
2023/08/14 08:44:09;;;;;;;1.13;1.13;;;27.30;71.30;;;;;;5097090;28;20052;-78
2023/08/14 08:46:37;;;;;;;2.88;1.77;;;27.70;70.30;;;;;;5119941;28;20022;-78
2023/08/14 08:49:04;;;;;;;1.50;1.40;;;27.90;69.00;;;;;;5101575;28;20044;-77
2023/08/14 08:51:34;;;;;;;2.95;1.48;;;28.10;68.50;;;;;;5119805;28;20047;-77
2023/08/14 08:54:00;;;;;;;2.22;1.92;;;28.20;67.90;;;;;;5119352;28;20043;-79
2023/08/14 08:56:27;;;;;;;1.63;1.52;;;28.30;68.00;;;;;;5100972;28;20032;-79
2023/08/14 08:58:53;;;;;;;1.80;1.50;;;28.70;67.10;;;;;;5090993;28;20142;-79
2023/08/14 09:01:22;;;;;;;1.70;1.60;;;28.90;66.60;;;;;;5078984;28;20067;-80
2023/08/14 09:03:50;;;;;;;1.63;1.52;;;29.10;66.10;;;;;;5065984;28;20108;-83
2023/08/14 09:06:16;;;;;;;1.55;1.45;;;29.10;65.80;;;;;;5059656;28;20025;-82
2023/08/14 09:08:41;;;;;;;1.90;1.80;;;29.00;65.90;;;;;;5060804;28;20021;-82
2023/08/14 09:11:07;;;;;;;1.55;1.55;;;29.10;65.20;;;;;;5060303;28;20633;-82
2023/08/14 09:13:33;;;;;;;1.90;1.80;;;29.00;65.50;;;;;;5042747;28;20033;-82
2023/08/14 09:16:00;;;;;;;1.80;1.70;;;29.10;65.30;;;;;;5061887;28;20033;-82
2023/08/14 09:18:26;;;;;;;1.85;1.75;;;29.30;65.20;;;;;;5043688;28;20025;-83
2023/08/14 09:20:53;;;;;;;1.30;1.30;;;29.50;65.00;;;;;;5043656;28;20018;-82
2023/08/14 09:23:31;;;;;;;1.20;1.20;;;29.90;64.70;;;;;;5045119;28;20021;-81
2023/08/14 09:26:01;;;;;;;1.73;1.67;;;30.30;63.10;;;;;;5060286;28;20065;-82
2023/08/14 09:28:54;;;;;;;2.10;1.90;;;30.50;61.90;;;;;;5057913;28;20032;-83
2023/08/14 09:31:20;;;;;;;1.38;1.38;;;30.50;61.00;;;;;;5099791;28;20020;-83
2023/08/14 09:33:46;;;;;;;1.63;1.52;;;30.60;60.80;;;;;;5107740;28;20214;-81
2023/08/14 09:36:16;;;;;;;1.50;1.50;;;30.70;60.10;;;;;;5090979;28;20020;-81
2023/08/14 09:38:50;;;;;;;1.65;1.60;;;30.80;60.20;;;;;;5089361;28;20036;-82
2023/08/14 09:41:15;;;;;;;1.58;1.50;;;30.80;59.50;;;;;;5072101;28;20052;-80
2023/08/14 09:43:44;;;;;;;1.50;1.40;;;30.70;59.00;;;;;;5072027;28;20130;-82
2023/08/14 09:46:12;;;;;;;1.50;1.50;;;30.80;58.80;;;;;;5069904;28;20031;-82
2023/08/14 09:48:46;;;;;;;1.48;1.48;;;30.80;58.70;;;;;;5068318;28;20084;-80
2023/08/14 09:51:19;;;;;;;1.30;1.30;;;30.90;58.60;;;;;;5086053;28;20012;-80
2023/08/14 09:53:57;;;;;;;1.70;1.60;;;30.70;58.20;;;;;;5085006;28;20086;-79
2023/08/14 09:56:26;;;;;;;1.60;1.50;;;30.70;59.00;;;;;;5086804;28;20029;-80
2023/08/14 09:58:54;;;;;;;2.33;2.22;;;30.60;58.40;;;;;;5100334;28;20095;-80
2023/08/14 10:01:24;;;;;;;1.65;1.58;;;30.20;59.10;;;;;;5074392;28;20037;-80
2023/08/14 10:03:54;;;;;;;;;;;29.90;59.80;;;;;;5074682;28;20036;-81
2023/08/14 10:06:23;;;;;;;1.98;1.88;;;;;;;;;;5081423;28;19915;-82
2023/08/14 10:09:02;;;;;;;1.85;1.75;;;30.00;58.80;;;;;;5089547;28;20112;-79
2023/08/14 10:11:29;;;;;;;2.13;1.92;;;30.20;58.60;;;;;;5076317;28;20025;-79
2023/08/14 10:14:00;;;;;;;1.80;1.70;;;30.20;58.40;;;;;;5092800;28;20035;-79
2023/08/14 10:16:31;;;;;;;1.98;1.88;;;30.20;58.80;;;;;;5060249;28;20081;-80
2023/08/14 10:19:01;;;;;;;2.10;2.00;;;30.40;58.80;;;;;;5048457;28;20047;-79
2023/08/14 10:21:31;;;;;;;1.73;1.63;;;30.50;58.50;;;;;;5054577;28;20036;-80
2023/08/14 10:23:59;;;;;;;1.97;1.87;;;30.60;58.40;;;;;;5055552;28;20028;-79
2023/08/14 10:26:26;;;;;;;1.88;1.77;;;30.80;58.20;;;;;;5065819;28;20278;-81
2023/08/14 10:28:53;;;;;;;1.70;1.60;;;30.80;57.30;;;;;;5084893;28;20050;-80
2023/08/14 10:31:20;;;;;;;1.80;1.70;;;30.90;57.40;;;;;;5083287;28;20445;-82
2023/08/14 10:34:01;;;;;;;2.08;1.98;;;30.90;58.10;;;;;;5097753;28;20028;-81
2023/08/14 10:36:28;;;;;;;2.50;2.30;;;30.90;58.80;;;;;;5203764;22;20055;-82
2023/08/14 10:38:54;;;;;;;2.20;2.10;;;30.60;58.70;;;;;;5061003;28;20115;-79
2023/08/14 10:41:20;;;;;;;2.20;2.10;;;30.60;58.30;;;;;;5079223;28;20048;-81
2023/08/14 10:43:52;;;;;;;2.15;2.05;;;30.80;58.40;;;;;;5078827;28;20067;-81
2023/08/14 10:46:18;;;;;;;2.45;2.13;;;31.10;57.90;;;;;;5050898;28;20029;-80
2023/08/14 10:48:48;;;;;;;3.10;1.90;;;31.40;56.70;;;;;;5069198;28;20035;-79
2023/08/14 10:51:16;;;;;;;2.30;2.00;;;31.50;55.10;;;;;;5069109;28;20087;-80
2023/08/14 10:53:42;;;;;;;2.03;1.85;;;31.60;55.30;;;;;;5070390;28;20036;-81
2023/08/14 10:56:10;;;;;;;2.30;2.20;;;31.70;54.40;;;;;;5055205;28;20052;-80
2023/08/14 10:58:36;;;;;;;1.88;1.77;;;31.90;54.30;;;;;;5071535;28;20100;-79
2023/08/14 11:01:05;;;;;;;2.05;1.95;;;32.10;54.00;;;;;;5062595;28;20021;-82
2023/08/14 11:03:54;;;;;;;2.28;2.05;;;31.90;53.90;;;;;;5044104;28;20041;-81
2023/08/14 11:06:27;;;;;;;2.40;2.30;;;31.90;54.40;;;;;;5053618;28;20033;-80
2023/08/14 11:09:03;;;;;;;4.88;1.98;;;32.10;54.30;;;;;;5039761;28;20098;-80
2023/08/14 11:11:29;;;;;;;1.98;1.88;;;32.20;53.50;;;;;;5040820;28;20036;-80
2023/08/14 11:13:57;;;;;;;2.28;2.05;;;32.30;53.60;;;;;;5041739;28;20158;-80
2023/08/14 11:16:24;;;;;;;1.60;1.60;;;32.40;52.30;;;;;;5062738;28;20042;-80
2023/08/14 11:18:51;;;;;;;2.28;2.17;;;32.00;52.80;;;;;;5044394;28;20028;-82
2023/08/14 11:21:17;;;;;;;2.47;2.28;;;32.00;53.50;;;;;;5066505;28;20024;-79
2023/08/14 11:23:42;;;;;;;1.90;1.80;;;32.30;53.70;;;;;;5072017;28;20029;-80
2023/08/14 11:26:08;;;;;;;1.88;1.77;;;32.80;53.30;;;;;;5060018;28;20025;-80
2023/08/14 11:28:34;;;;;;;2.00;1.90;;;33.20;53.00;;;;;;5067552;28;20021;-81
2023/08/14 11:31:00;;;;;;;1.90;1.80;;;33.70;52.30;;;;;;5057849;28;20108;-79
2023/08/14 11:33:26;;;;;;;3.13;2.10;;;34.10;51.30;;;;;;5075075;28;20021;-78
2023/08/14 11:35:54;;;;;;;2.10;2.00;;;34.00;50.70;;;;;;5095758;28;20047;-79
2023/08/14 11:38:22;;;;;;;2.38;1.80;;;33.90;49.50;;;;;;5077839;28;20047;-78
2023/08/14 11:40:50;;;;;;;2.15;2.00;;;33.70;50.00;;;;;;5091956;28;20044;-80
2023/08/14 11:43:16;;;;;;;2.17;2.08;;;33.50;51.20;;;;;;5084210;28;20028;-78
2023/08/14 11:45:42;;;;;;;2.20;2.10;;;33.50;51.50;;;;;;5078493;28;20024;-81
2023/08/14 11:48:08;;;;;;;2.30;2.20;;;33.30;51.50;;;;;;5068676;28;20061;-81
2023/08/14 11:50:34;;;;;;;1.63;1.60;;;33.20;52.00;;;;;;5038632;28;20040;-80
2023/08/14 11:53:01;;;;;;;2.00;1.90;;;33.20;52.10;;;;;;5068926;28;20009;-79
2023/08/14 11:55:27;;;;;;;2.25;2.05;;;33.30;52.20;;;;;;5074481;28;20035;-78
2023/08/14 11:57:53;;;;;;;2.55;2.35;;;33.30;51.80;;;;;;5041222;28;20036;-80
2023/08/14 12:00:20;;;;;;;2.15;2.05;;;33.20;52.10;;;;;;5049159;28;20024;-81
2023/08/14 12:02:46;;;;;;;2.10;2.00;;;33.10;52.30;;;;;;5074769;28;20024;-79
2023/08/14 12:05:12;;;;;;;2.40;2.20;;;33.20;52.40;;;;;;5062765;28;20032;-80
2023/08/14 12:07:41;;;;;;;2.40;2.30;;;33.10;51.80;;;;;;5056378;28;20017;-80
2023/08/14 12:10:08;;;;;;;3.30;1.90;;;32.80;51.80;;;;;;5039066;28;20025;-80
2023/08/14 12:12:34;;;;;;;1.80;1.70;;;32.60;51.70;;;;;;5038468;28;20116;-81
2023/08/14 12:15:00;;;;;;;2.30;2.10;;;32.70;51.70;;;;;;5052001;28;20492;-80
2023/08/14 12:17:26;;;;;;;2.10;2.00;;;32.70;51.10;;;;;;5023867;28;20043;-79
2023/08/14 12:19:54;;;;;;;2.00;1.90;;;32.80;50.90;;;;;;5054589;28;20393;-79
2023/08/14 12:22:24;;;;;;;2.03;1.92;;;32.90;51.00;;;;;;5053318;28;20029;-78
2023/08/14 12:24:50;;;;;;;1.93;1.83;;;33.00;51.20;;;;;;5035157;28;20120;-80
2023/08/14 12:27:27;;;;;;;2.10;2.00;;;33.00;51.00;;;;;;5054150;28;20378;-78
2023/08/14 12:29:55;;;;;;;2.00;1.90;;;33.00;50.50;;;;;;5047792;28;20488;-79
2023/08/14 12:32:22;;;;;;;2.50;2.30;;;32.80;51.00;;;;;;5056443;28;20039;-78
2023/08/14 12:34:48;;;;;;;1.80;1.70;;;32.80;51.10;;;;;;5071638;28;20042;-78
2023/08/14 12:37:15;;;;;;;2.40;2.20;;;32.90;51.10;;;;;;5034712;28;20029;-79
2023/08/14 12:39:47;;;;;;;2.47;2.10;;;32.80;51.10;;;;;;5047185;28;20052;-77
2023/08/14 12:42:14;;;;;;;2.33;2.22;;;32.60;51.50;;;;;;5058754;28;20025;-77
2023/08/14 12:44:40;;;;;;;2.22;2.03;;;32.60;51.90;;;;;;5068532;28;20024;-77
2023/08/14 12:47:06;;;;;;;2.28;1.83;;;32.70;51.60;;;;;;5066915;28;20036;-78
2023/08/14 12:49:33;;;;;;;2.10;1.98;;;32.60;51.80;;;;;;5075044;28;20020;-77
2023/08/14 12:51:59;;;;;;;2.30;2.20;;;32.40;51.70;;;;;;5057552;28;20032;-77
2023/08/14 12:54:51;;;;;;;2.10;2.00;;;32.40;52.40;;;;;;5073118;28;20025;-78
2023/08/14 12:57:17;;;;;;;2.05;1.95;;;32.70;52.40;;;;;;5044686;28;20052;-76
2023/08/14 12:59:42;;;;;;;2.60;2.40;;;32.90;51.70;;;;;;5062367;28;20021;-77